createdAt,value
2023-05-05T00:01:08.986Z,6.03
2023-05-05T00:03:40.271Z,6.37
2023-05-05T00:06:13.420Z,6.50
2023-05-05T00:08:41.432Z,6.20
2023-05-05T00:11:16.766Z,5.93
2023-05-05T00:13:50.803Z,5.40
2023-05-05T00:16:18.926Z,6.20
2023-05-05T00:18:47.359Z,5.37
2023-05-05T00:21:19.382Z,6.10
2023-05-05T00:23:48.467Z,6.30
2023-05-05T00:26:19.824Z,6.07
2023-05-05T00:28:52.187Z,7.27
2023-05-05T00:31:24.099Z,6.20
2023-05-05T00:33:52.473Z,7.10
2023-05-05T00:36:21.323Z,5.60
2023-05-05T00:38:49.624Z,7.40
2023-05-05T00:41:20.655Z,6.30
2023-05-05T00:43:50.497Z,6.40
2023-05-05T00:46:26.257Z,6.10
2023-05-05T00:48:58.527Z,6.00
2023-05-05T00:51:27.249Z,5.80
2023-05-05T00:53:59.888Z,5.80
2023-05-05T00:56:28.982Z,6.33
2023-05-05T00:58:59.714Z,5.70
2023-05-05T01:01:32.224Z,6.27
2023-05-05T01:04:02.825Z,6.57
2023-05-05T01:06:43.781Z,6.57
2023-05-05T01:09:22.849Z,6.20
2023-05-05T01:12:07.700Z,5.60
2023-05-05T01:14:41.226Z,5.50
2023-05-05T01:17:16.557Z,6.17
2023-05-05T01:20:04.831Z,5.50
2023-05-05T01:22:39.870Z,5.30
2023-05-05T01:25:23.868Z,6.00
2023-05-05T01:28:02.298Z,6.00
2023-05-05T01:31:09.157Z,6.50
2023-05-05T01:33:46.113Z,6.07
2023-05-05T01:36:22.963Z,6.00
2023-05-05T01:38:55.731Z,6.57
2023-05-05T01:41:34.340Z,5.20
2023-05-05T01:44:07.057Z,6.00
2023-05-05T01:46:37.134Z,6.50
2023-05-05T01:49:11.775Z,6.53
2023-05-05T01:51:43.758Z,5.67
2023-05-05T01:54:16.631Z,6.27
2023-05-05T01:56:44.933Z,6.57
2023-05-05T01:59:17.659Z,6.40
2023-05-05T02:01:47.305Z,6.33
2023-05-05T02:04:22.903Z,6.03
2023-05-05T02:06:54.370Z,6.10
2023-05-05T02:09:25.756Z,5.80
2023-05-05T02:11:54.743Z,7.13
2023-05-05T02:14:23.666Z,5.60
2023-05-05T02:16:52.408Z,6.10
2023-05-05T02:19:30.454Z,6.13
2023-05-05T02:21:59.313Z,5.90
2023-05-05T02:24:27.878Z,6.70
2023-05-05T02:27:10.233Z,5.63
2023-05-05T02:29:45.007Z,6.00
2023-05-05T02:32:18.780Z,6.07
2023-05-05T02:35:06.606Z,5.40
2023-05-05T02:37:35.663Z,6.53
2023-05-05T02:40:06.707Z,5.40
2023-05-05T02:42:43.857Z,5.10
2023-05-05T02:45:17.451Z,6.03
2023-05-05T02:47:45.792Z,5.93
2023-05-05T02:50:17.363Z,5.67
2023-05-05T02:52:51.478Z,6.50
2023-05-05T02:55:19.850Z,4.97
2023-05-05T02:57:55.721Z,5.90
2023-05-05T03:00:27.311Z,5.40
2023-05-05T03:03:06.119Z,5.80
2023-05-05T03:05:40.896Z,6.10
2023-05-05T03:08:12.615Z,6.10
2023-05-05T03:10:45.673Z,4.87
2023-05-05T03:13:16.265Z,4.97
2023-05-05T03:15:50.672Z,5.43
2023-05-05T03:18:20.803Z,5.50
2023-05-05T03:21:09.513Z,4.73
2023-05-05T03:23:40.289Z,4.70
2023-05-05T03:26:10.506Z,4.50
2023-05-05T03:28:38.780Z,5.17
2023-05-05T03:31:07.054Z,4.97
2023-05-05T03:33:37.942Z,4.60
2023-05-05T03:36:18.602Z,5.50
2023-05-05T03:38:46.985Z,5.77
2023-05-05T03:41:17.623Z,4.80
2023-05-05T03:43:48.886Z,5.13
2023-05-05T03:46:17.697Z,5.37
2023-05-05T03:48:46.735Z,5.20
2023-05-05T03:51:21.807Z,5.33
2023-05-05T03:53:53.199Z,5.87
2023-05-05T03:56:21.606Z,4.80
2023-05-05T03:58:49.625Z,5.43
2023-05-05T04:01:22.276Z,4.40
2023-05-05T04:03:50.702Z,5.27
2023-05-05T04:06:23.502Z,5.03
2023-05-05T04:08:52.215Z,4.60
2023-05-05T04:11:20.938Z,5.03
2023-05-05T04:13:54.691Z,4.67
2023-05-05T04:16:24.475Z,5.53
2023-05-05T04:18:52.799Z,4.60
2023-05-05T04:21:22.819Z,4.63
2023-05-05T04:23:57.720Z,4.53
2023-05-05T04:26:25.819Z,5.10
2023-05-05T04:28:56.076Z,4.83
2023-05-05T04:31:26.239Z,4.43
2023-05-05T04:33:55.983Z,5.10
2023-05-05T04:36:26.372Z,4.60
2023-05-05T04:38:57.453Z,4.90
2023-05-05T04:41:32.365Z,4.20
2023-05-05T04:44:04.137Z,4.37
2023-05-05T04:46:32.481Z,3.60
2023-05-05T04:49:04.394Z,3.50
2023-05-05T04:51:36.434Z,4.70
2023-05-05T04:54:05.932Z,4.10
2023-05-05T04:56:34.318Z,4.87
2023-05-05T04:59:02.703Z,4.00
2023-05-05T05:01:36.216Z,3.97
2023-05-05T05:04:06.456Z,4.40
2023-05-05T05:06:40.409Z,4.33
2023-05-05T05:09:08.828Z,3.70
2023-05-05T05:11:37.868Z,5.10
2023-05-05T05:14:06.262Z,5.37
2023-05-05T05:16:37.347Z,5.37
2023-05-05T05:19:06.944Z,5.37
2023-05-05T05:21:37.640Z,5.90
2023-05-05T05:24:16.506Z,6.03
2023-05-05T05:26:46.255Z,5.70
2023-05-05T05:29:27.503Z,6.70
2023-05-05T05:32:00.265Z,5.60
2023-05-05T05:34:30.731Z,6.10
2023-05-05T05:37:02.379Z,5.60
2023-05-05T05:39:33.243Z,5.10
2023-05-05T05:42:06.938Z,5.03
2023-05-05T05:44:44.069Z,5.00
2023-05-05T05:47:15.140Z,5.43
2023-05-05T05:49:45.177Z,5.60
2023-05-05T05:52:16.854Z,4.93
2023-05-05T05:54:45.878Z,5.00
2023-05-05T05:57:16.110Z,4.40
2023-05-05T05:59:50.516Z,4.90
2023-05-05T06:02:21.895Z,4.67
2023-05-05T06:04:50.975Z,5.00
2023-05-05T06:07:23.870Z,4.63
2023-05-05T06:09:51.638Z,4.80
2023-05-05T06:12:20.158Z,5.70
2023-05-05T06:14:49.094Z,4.70
2023-05-05T06:17:17.600Z,4.77
2023-05-05T06:19:45.573Z,5.07
2023-05-05T06:22:16.642Z,4.70
2023-05-05T06:24:48.962Z,5.23
2023-05-05T06:27:17.342Z,5.10
2023-05-05T06:29:45.834Z,5.10
2023-05-05T06:32:14.912Z,4.70
2023-05-05T06:34:44.709Z,4.53
2023-05-05T06:37:13.250Z,5.30
2023-05-05T06:39:49.358Z,4.47
2023-05-05T06:42:19.308Z,4.43
2023-05-05T06:44:48.813Z,5.80
2023-05-05T06:47:17.448Z,4.93
2023-05-05T06:49:45.616Z,5.33
2023-05-05T06:52:13.996Z,6.03
2023-05-05T06:54:43.888Z,4.40
2023-05-05T06:57:33.136Z,5.10
2023-05-05T07:00:08.027Z,5.17
2023-05-05T07:02:36.871Z,5.20
2023-05-05T07:05:06.181Z,3.73
2023-05-05T07:07:38.575Z,4.40
2023-05-05T07:10:11.421Z,4.60
2023-05-05T07:12:44.794Z,5.10
2023-05-05T07:15:26.580Z,4.10
2023-05-05T07:17:58.574Z,4.73
2023-05-05T07:20:26.919Z,3.60
2023-05-05T07:23:01.238Z,3.50
2023-05-05T07:25:32.969Z,4.30
2023-05-05T07:28:08.204Z,3.77
2023-05-05T07:30:36.755Z,4.27
2023-05-05T07:33:10.090Z,3.80
2023-05-05T07:35:49.229Z,4.03
2023-05-05T07:38:20.062Z,3.70
2023-05-05T07:40:50.484Z,4.20
2023-05-05T07:43:30.158Z,3.67
2023-05-05T07:45:58.404Z,3.70
2023-05-05T07:48:26.833Z,3.70
2023-05-05T07:50:55.281Z,3.97
2023-05-05T07:53:25.934Z,3.83
2023-05-05T07:55:54.542Z,3.50
2023-05-05T07:58:25.052Z,3.83
2023-05-05T08:00:57.056Z,3.40
2023-05-05T08:03:28.163Z,3.63
2023-05-05T08:05:57.045Z,3.80
2023-05-05T08:08:26.234Z,3.43
2023-05-05T08:10:57.247Z,3.40
2023-05-05T08:13:28.398Z,3.17
2023-05-05T08:16:09.930Z,3.17
2023-05-05T08:18:41.914Z,3.50
2023-05-05T08:21:10.985Z,3.27
2023-05-05T08:23:42.788Z,3.50
2023-05-05T08:26:15.430Z,3.40
2023-05-05T08:28:44.815Z,3.50
2023-05-05T08:31:19.724Z,3.60
2023-05-05T08:33:48.241Z,3.30
2023-05-05T08:36:18.849Z,3.40
2023-05-05T08:38:50.464Z,3.87
2023-05-05T08:41:21.889Z,3.93
2023-05-05T08:43:54.147Z,3.90
2023-05-05T08:46:25.583Z,3.40
2023-05-05T08:48:58.628Z,3.70
2023-05-05T08:51:34.739Z,3.87
2023-05-05T08:54:11.823Z,3.30
2023-05-05T08:56:41.801Z,3.53
2023-05-05T08:59:25.505Z,3.60
2023-05-05T09:01:58.297Z,3.40
2023-05-05T09:04:29.070Z,3.80
2023-05-05T09:07:01.491Z,4.07
2023-05-05T09:09:32.121Z,4.40
2023-05-05T09:12:05.020Z,4.60
2023-05-05T09:14:34.802Z,5.27
2023-05-05T09:17:04.835Z,7.90
2023-05-05T09:19:37.302Z,6.73
2023-05-05T09:22:05.404Z,6.80
2023-05-05T09:24:34.317Z,5.60
2023-05-05T09:27:03.219Z,5.53
2023-05-05T09:29:45.224Z,5.20
2023-05-05T09:32:21.877Z,4.73
2023-05-05T09:35:02.401Z,4.20
2023-05-05T09:37:35.102Z,5.40
2023-05-05T09:40:05.418Z,5.57
2023-05-05T09:42:36.180Z,4.70
2023-05-05T09:45:09.135Z,3.67
2023-05-05T09:47:40.801Z,4.50
2023-05-05T09:50:11.707Z,4.30
2023-05-05T09:52:43.860Z,4.13
2023-05-05T09:55:27.810Z,3.90
2023-05-05T09:58:09.538Z,4.27
2023-05-05T10:00:40.148Z,3.73
2023-05-05T10:03:12.887Z,4.23
2023-05-05T10:05:52.010Z,3.43
2023-05-05T10:08:21.796Z,3.43
2023-05-05T10:10:53.955Z,3.53
2023-05-05T10:13:26.802Z,4.50
2023-05-05T10:15:59.941Z,4.73
2023-05-05T10:18:34.193Z,3.30
2023-05-05T10:21:05.329Z,3.20
2023-05-05T10:23:39.400Z,3.17
2023-05-05T10:26:19.913Z,3.10
2023-05-05T10:28:56.751Z,3.10
2023-05-05T10:31:29.689Z,3.40
2023-05-05T10:34:04.605Z,3.30
2023-05-05T10:36:35.149Z,3.63
2023-05-05T10:39:09.378Z,3.07
2023-05-05T10:41:41.122Z,3.67
2023-05-05T10:44:11.233Z,3.20
2023-05-05T10:46:39.819Z,3.13
2023-05-05T10:49:20.121Z,3.50
2023-05-05T10:51:55.856Z,3.30
2023-05-05T10:54:36.360Z,3.57
2023-05-05T10:57:09.215Z,4.27
2023-05-05T10:59:46.710Z,4.80
2023-05-05T11:02:40.603Z,3.90
2023-05-05T11:05:21.089Z,3.70
2023-05-05T11:07:52.531Z,3.53
2023-05-05T11:10:24.679Z,3.93
2023-05-05T11:13:20.319Z,3.60
2023-05-05T11:15:57.213Z,3.40
2023-05-05T11:18:36.412Z,3.77
2023-05-05T11:21:20.622Z,3.93
2023-05-05T11:23:51.295Z,3.57
2023-05-05T11:26:23.750Z,3.80
2023-05-05T11:29:02.976Z,3.33
2023-05-05T11:31:36.258Z,3.53
2023-05-05T11:34:29.525Z,3.10
2023-05-05T11:37:13.121Z,2.97
2023-05-05T11:39:54.909Z,3.17
2023-05-05T11:42:28.074Z,3.10
2023-05-05T11:44:56.566Z,2.80
2023-05-05T11:47:32.430Z,2.80
2023-05-05T11:50:16.729Z,2.07
2023-05-05T11:52:49.739Z,2.17
2023-05-05T11:55:23.741Z,2.67
2023-05-05T11:57:55.325Z,2.93
2023-05-05T12:00:36.722Z,3.10
2023-05-05T12:03:06.578Z,2.93
2023-05-05T12:05:40.093Z,3.50
2023-05-05T12:08:10.374Z,3.33
2023-05-05T12:10:40.948Z,3.43
2023-05-05T12:13:23.429Z,3.10
2023-05-05T12:15:57.821Z,4.27
2023-05-05T12:18:28.812Z,3.60
2023-05-05T12:20:57.274Z,3.27
2023-05-05T12:23:32.028Z,4.80
2023-05-05T12:25:59.882Z,3.13
2023-05-05T12:28:50.509Z,3.60
2023-05-05T12:31:18.723Z,3.07
2023-05-05T12:33:59.584Z,2.90
2023-05-05T12:36:31.176Z,3.30
2023-05-05T12:39:03.390Z,3.03
2023-05-05T12:41:35.065Z,3.43
2023-05-05T12:44:06.018Z,3.47
2023-05-05T12:46:47.360Z,3.90
2023-05-05T12:49:20.343Z,3.43
2023-05-05T12:51:58.392Z,2.93
2023-05-05T12:54:33.689Z,3.27
2023-05-05T12:57:12.779Z,3.10
2023-05-05T12:59:40.608Z,2.93
2023-05-05T13:02:11.707Z,2.43
2023-05-05T13:04:50.397Z,2.95
2023-05-05T13:07:21.757Z,2.42
2023-05-05T13:09:51.995Z,2.33
2023-05-05T13:12:23.308Z,2.35
2023-05-05T13:14:58.015Z,2.63
2023-05-05T13:17:32.804Z,2.20
2023-05-05T13:20:06.698Z,2.70
2023-05-05T13:22:44.956Z,1.97
2023-05-05T13:25:20.056Z,2.40
2023-05-05T13:27:52.972Z,1.93
2023-05-05T13:30:21.448Z,2.30
2023-05-05T13:32:49.597Z,2.50
2023-05-05T13:35:20.174Z,2.93
2023-05-05T13:37:52.521Z,3.47
2023-05-05T13:40:24.516Z,3.07
2023-05-05T13:42:55.232Z,2.87
2023-05-05T13:45:24.329Z,2.60
2023-05-05T13:47:55.033Z,2.30
2023-05-05T13:50:31.968Z,2.70
2023-05-05T13:52:59.883Z,2.77
2023-05-05T13:55:36.507Z,2.20
2023-05-05T13:58:09.679Z,3.03
2023-05-05T14:00:37.886Z,3.20
2023-05-05T14:03:08.909Z,3.23
2023-05-05T14:05:39.148Z,2.90
2023-05-05T14:08:09.724Z,2.83
2023-05-05T14:10:40.479Z,3.20
2023-05-05T14:13:09.055Z,2.90
2023-05-05T14:15:38.827Z,3.00
2023-05-05T14:18:08.709Z,3.30
2023-05-05T14:20:41.672Z,3.70
2023-05-05T14:23:11.065Z,3.80
2023-05-05T14:25:43.900Z,2.80
2023-05-05T14:28:12.766Z,3.53
2023-05-05T14:30:44.920Z,3.37
2023-05-05T14:33:14.496Z,3.03
2023-05-05T14:35:42.802Z,3.70
2023-05-05T14:38:13.889Z,3.57
2023-05-05T14:40:46.102Z,3.30
2023-05-05T14:43:17.059Z,3.73
2023-05-05T14:45:48.400Z,3.90
2023-05-05T14:48:25.454Z,4.20
2023-05-05T14:50:59.455Z,3.40
2023-05-05T14:53:30.968Z,3.60
2023-05-05T14:56:07.045Z,3.70
2023-05-05T14:58:44.488Z,4.70
2023-05-05T15:01:21.213Z,4.43
2023-05-05T15:03:52.613Z,3.40
2023-05-05T15:06:28.555Z,3.47
2023-05-05T15:08:56.900Z,3.50
2023-05-05T15:11:28.418Z,3.50
2023-05-05T15:13:57.390Z,3.40
2023-05-05T15:16:29.359Z,3.10
2023-05-05T15:18:58.457Z,3.13
2023-05-05T15:21:26.981Z,3.60
2023-05-05T15:23:57.335Z,2.70
2023-05-05T15:26:29.300Z,3.03
2023-05-05T15:28:57.133Z,3.13
2023-05-05T15:31:26.999Z,2.90
2023-05-05T15:34:01.697Z,2.70
2023-05-05T15:36:29.887Z,3.20
2023-05-05T15:38:59.172Z,3.13
2023-05-05T15:41:29.669Z,5.57
2023-05-05T15:43:58.396Z,5.63
2023-05-05T15:46:26.884Z,4.53
2023-05-05T15:48:54.699Z,5.67
2023-05-05T15:51:27.428Z,4.90
2023-05-05T15:54:04.207Z,3.37
2023-05-05T15:56:33.866Z,3.40
2023-05-05T15:59:05.396Z,3.40
2023-05-05T16:01:36.612Z,3.60
2023-05-05T16:04:08.848Z,3.33
2023-05-05T16:06:37.053Z,3.77
2023-05-05T16:09:05.714Z,3.73
2023-05-05T16:11:37.736Z,3.80
2023-05-05T16:14:05.716Z,4.57
2023-05-05T16:16:33.733Z,3.83
2023-05-05T16:19:01.872Z,4.23
2023-05-05T16:21:31.470Z,3.97
2023-05-05T16:23:59.733Z,4.10
2023-05-05T16:26:30.223Z,3.93
2023-05-05T16:29:00.925Z,3.87
2023-05-05T16:31:29.599Z,4.23
2023-05-05T16:34:14.971Z,3.33
2023-05-05T16:36:46.046Z,3.10
2023-05-05T16:39:18.843Z,3.50
2023-05-05T16:41:52.407Z,4.03
2023-05-05T16:44:25.361Z,4.90
2023-05-05T16:46:53.958Z,3.37
2023-05-05T16:49:24.165Z,3.17
2023-05-05T16:51:52.834Z,3.40
2023-05-05T16:54:21.260Z,3.40
2023-05-05T16:56:52.642Z,2.80
2023-05-05T16:59:22.756Z,3.00
2023-05-05T17:01:56.205Z,2.70
2023-05-05T17:04:25.242Z,2.80
2023-05-05T17:06:56.336Z,3.63
2023-05-05T17:09:27.316Z,2.47
2023-05-05T17:12:01.043Z,2.40
2023-05-05T17:14:30.664Z,2.43
2023-05-05T17:16:59.511Z,2.87
2023-05-05T17:19:29.533Z,3.10
2023-05-05T17:21:57.679Z,3.60
2023-05-05T17:24:40.337Z,3.37
2023-05-05T17:27:13.449Z,3.00
2023-05-05T17:29:43.265Z,3.43
2023-05-05T17:32:11.154Z,4.10
2023-05-05T17:34:41.777Z,2.80
2023-05-05T17:37:10.658Z,3.83
2023-05-05T17:39:39.662Z,3.53
2023-05-05T17:42:09.108Z,4.17
2023-05-05T17:44:36.976Z,3.70
2023-05-05T17:47:08.614Z,3.70
2023-05-05T17:49:36.553Z,3.33
2023-05-05T17:52:07.498Z,2.80
2023-05-05T17:54:39.159Z,2.80
2023-05-05T17:57:11.234Z,2.77
2023-05-05T17:59:39.449Z,2.80
2023-05-05T18:02:15.679Z,3.30
2023-05-05T18:04:43.915Z,3.13
2023-05-05T18:07:14.971Z,3.17
2023-05-05T18:09:52.279Z,3.07
2023-05-05T18:12:20.503Z,3.27
2023-05-05T18:14:50.744Z,3.43
2023-05-05T18:17:21.541Z,3.13
2023-05-05T18:19:51.037Z,3.20
2023-05-05T18:22:22.006Z,2.80
2023-05-05T18:24:59.982Z,3.10
2023-05-05T18:27:32.638Z,3.87
2023-05-05T18:30:00.977Z,3.10
2023-05-05T18:32:31.946Z,3.13
2023-05-05T18:35:00.562Z,2.97
2023-05-05T18:37:34.148Z,3.17
2023-05-05T18:40:02.332Z,3.60
2023-05-05T18:42:34.603Z,3.97
2023-05-05T18:45:08.578Z,3.50
2023-05-05T18:47:44.317Z,3.60
2023-05-05T18:50:13.927Z,3.30
2023-05-05T18:52:48.326Z,3.10
2023-05-05T18:55:18.897Z,3.40
2023-05-05T18:57:47.198Z,3.00
2023-05-05T19:00:30.312Z,2.90
2023-05-05T19:03:09.364Z,3.43
2023-05-05T19:05:42.281Z,3.40
2023-05-05T19:08:16.270Z,3.13
2023-05-05T19:10:49.646Z,3.77
2023-05-05T19:13:18.024Z,3.70
2023-05-05T19:15:49.869Z,3.03
2023-05-05T19:18:20.134Z,3.30
2023-05-05T19:20:52.969Z,2.93
2023-05-05T19:23:22.977Z,3.53
2023-05-05T19:26:16.918Z,3.93
2023-05-05T19:28:46.495Z,4.27
2023-05-05T19:31:25.197Z,3.80
2023-05-05T19:34:07.335Z,3.70
2023-05-05T19:36:35.799Z,4.00
2023-05-05T19:39:08.630Z,3.47
2023-05-05T19:41:37.069Z,4.13
2023-05-05T19:44:05.548Z,4.63
2023-05-05T19:46:33.812Z,4.30
2023-05-05T19:49:04.070Z,4.57
2023-05-05T19:51:33.180Z,4.83
2023-05-05T19:54:01.327Z,5.43
2023-05-05T19:56:29.717Z,4.33
2023-05-05T19:59:05.375Z,4.97
2023-05-05T20:01:34.560Z,4.20
2023-05-05T20:04:04.835Z,4.93
2023-05-05T20:06:33.789Z,5.60
2023-05-05T20:09:02.342Z,5.50
2023-05-05T20:11:34.658Z,5.30
2023-05-05T20:14:04.676Z,5.77
2023-05-05T20:16:33.936Z,5.17
2023-05-05T20:19:03.922Z,5.17
2023-05-05T20:21:32.852Z,4.40
2023-05-05T20:24:02.639Z,5.13
2023-05-05T20:26:37.060Z,4.60
2023-05-05T20:29:06.452Z,5.33
2023-05-05T20:31:35.006Z,5.17
2023-05-05T20:34:06.933Z,4.93
2023-05-05T20:36:38.762Z,4.37
2023-05-05T20:39:07.746Z,4.63
2023-05-05T20:41:36.379Z,4.00
2023-05-05T20:44:07.785Z,4.00
2023-05-05T20:46:36.416Z,4.23
2023-05-05T20:49:09.448Z,3.80
2023-05-05T20:51:39.854Z,3.90
2023-05-05T20:54:08.064Z,4.00
2023-05-05T20:56:36.262Z,3.83
2023-05-05T20:59:04.945Z,3.87
2023-05-05T21:01:35.565Z,3.50
2023-05-05T21:04:07.659Z,4.17
2023-05-05T21:06:35.843Z,4.00
2023-05-05T21:09:04.175Z,4.63
2023-05-05T21:11:34.758Z,4.40
2023-05-05T21:14:04.271Z,5.00
2023-05-05T21:16:33.612Z,4.13
2023-05-05T21:19:01.560Z,4.60
2023-05-05T21:21:32.603Z,3.57
2023-05-05T21:24:01.012Z,4.10
2023-05-05T21:26:33.074Z,3.97
2023-05-05T21:29:01.402Z,3.23
2023-05-05T21:31:34.454Z,3.03
2023-05-05T21:34:06.050Z,3.30
2023-05-05T21:36:36.318Z,3.60
2023-05-05T21:39:21.458Z,3.77
2023-05-05T21:41:52.511Z,2.70
2023-05-05T21:44:25.763Z,3.07
2023-05-05T21:46:57.161Z,3.30
2023-05-05T21:49:28.975Z,2.60
2023-05-05T21:52:01.747Z,3.40
2023-05-05T21:54:36.341Z,2.87
2023-05-05T21:57:04.694Z,3.20
2023-05-05T21:59:33.007Z,3.97
2023-05-05T22:02:04.777Z,2.70
2023-05-05T22:04:32.871Z,2.53
2023-05-05T22:07:03.496Z,3.00
2023-05-05T22:09:31.234Z,2.83
2023-05-05T22:12:02.610Z,2.37
2023-05-05T22:14:30.405Z,2.40
2023-05-05T22:17:04.180Z,2.60
2023-05-05T22:19:37.710Z,2.07
2023-05-05T22:22:10.430Z,2.60
2023-05-05T22:24:42.520Z,3.03
2023-05-05T22:27:12.160Z,2.90
2023-05-05T22:29:40.365Z,3.17
2023-05-05T22:32:12.644Z,3.37
2023-05-05T22:34:40.695Z,3.27
2023-05-05T22:37:10.365Z,3.20
2023-05-05T22:39:39.362Z,3.07
2023-05-05T22:42:10.008Z,2.80
2023-05-05T22:44:39.987Z,3.10
2023-05-05T22:47:11.399Z,2.93
2023-05-05T22:49:43.804Z,2.40
2023-05-05T22:52:14.082Z,2.70
2023-05-05T22:54:43.568Z,2.70
2023-05-05T22:57:15.825Z,2.43
2023-05-05T22:59:45.814Z,2.33
2023-05-05T23:02:14.711Z,2.10
2023-05-05T23:04:44.904Z,2.60
2023-05-05T23:07:23.952Z,2.80
2023-05-05T23:09:54.399Z,2.73
2023-05-05T23:12:23.020Z,2.50
2023-05-05T23:14:52.518Z,2.40
2023-05-05T23:17:27.595Z,2.13
2023-05-05T23:19:58.416Z,2.50
2023-05-05T23:22:32.508Z,2.80
2023-05-05T23:25:05.219Z,2.13
2023-05-05T23:27:33.934Z,2.10
2023-05-05T23:30:07.131Z,2.40
2023-05-05T23:32:35.326Z,2.23
2023-05-05T23:35:03.166Z,1.73
2023-05-05T23:37:33.301Z,1.73
2023-05-05T23:40:02.858Z,1.50
2023-05-05T23:42:32.697Z,1.80
2023-05-05T23:45:00.881Z,1.70
2023-05-05T23:47:29.417Z,1.80
2023-05-05T23:49:57.491Z,2.00
2023-05-05T23:52:25.907Z,2.00
2023-05-05T23:54:57.580Z,1.70
2023-05-05T23:57:29.476Z,2.40
